Time;durP1;ratioP1;P1;durP2;ratioP2;P2;SDS_P1;SDS_P2;PMS_P1;PMS_P2;Temp;Humidity;BMP_temperature;BMP_pressure;BME280_temperature;BME280_humidity;BME280_pressure;Samples;Min_cycle;Max_cycle;Signal;HPM_P1;HPM_P2
2022/08/14 00:01:43;;;;;;;19.55;14.70;;;;;;;19.92;100.00;96316.56;5027138;28;20068;-59
2022/08/14 00:04:21;;;;;;;18.25;14.43;;;;;;;19.90;100.00;96319.06;5027281;28;20499;-60
2022/08/14 00:07:08;;;;;;;22.00;15.40;;;;;;;19.93;100.00;96318.94;5027053;28;20060;-60
2022/08/14 00:09:35;;;;;;;22.35;15.43;;;;;;;20.02;100.00;96307.03;5026691;28;20050;-61
2022/08/14 00:12:22;;;;;;;21.55;16.17;;;;;;;19.83;100.00;96282.72;5038358;28;20474;-60
2022/08/14 00:15:00;;;;;;;21.48;15.32;;;;;;;19.98;100.00;96306.34;5044358;28;20084;-59
2022/08/14 00:17:28;;;;;;;22.95;15.52;;;;;;;19.97;100.00;96316.00;5046828;28;20052;-60
2022/08/14 00:19:56;;;;;;;24.98;14.85;;;;;;;19.68;100.00;96276.75;5046912;28;20053;-59
2022/08/14 00:22:25;;;;;;;21.02;14.93;;;;;;;19.99;100.00;96313.53;5045064;28;20416;-60
2022/08/14 00:25:11;;;;;;;18.67;14.52;;;;;;;20.04;100.00;96307.38;5046626;28;20498;-62
2022/08/14 00:27:40;;;;;;;22.45;13.80;;;;;;;19.94;100.00;96288.78;5046285;28;20534;-60
2022/08/14 00:30:09;;;;;;;18.05;14.38;;;;;;;20.13;100.00;96310.28;5046344;28;20236;-59
2022/08/14 00:32:43;;;;;;;20.30;14.90;;;;;;;20.18;100.00;96309.75;5045339;28;20136;-59
2022/08/14 00:35:22;;;;;;;19.65;15.55;;;;;;;20.18;100.00;96309.75;5046027;28;20057;-60
2022/08/14 00:38:09;;;;;;;21.50;15.00;;;;;;;20.09;100.00;96279.44;5046546;28;20100;-61
2022/08/14 00:40:36;;;;;;;21.52;15.88;;;;;;;19.68;100.00;96209.31;5046316;28;20084;-59
2022/08/14 00:43:03;;;;;;;20.35;15.85;;;;;;;20.29;100.00;96311.00;5046355;28;20569;-59
2022/08/14 00:45:30;;;;;;;20.42;16.13;;;;;;;20.26;100.00;96277.34;5045799;28;20538;-59
2022/08/14 00:47:57;;;;;;;18.13;14.68;;;;;;;20.29;100.00;96304.56;5045620;28;20052;-61
2022/08/14 00:50:27;;;;;;;21.33;14.48;;;;;;;20.26;100.00;96297.03;5046000;28;20064;-59
2022/08/14 00:52:54;;;;;;;20.30;14.30;;;;;;;20.24;100.00;96296.69;5044199;28;20106;-61
2022/08/14 00:55:21;;;;;;;23.70;14.75;;;;;;;20.19;100.00;96288.81;5045662;28;20057;-60
2022/08/14 00:58:29;;;;;;;17.90;14.75;;;;;;;19.43;100.00;96210.09;5044273;28;20045;-61
2022/08/14 01:00:37;;;;;;;19.42;14.48;;;;;;;19.95;100.00;96291.16;5045739;28;20072;-60
2022/08/14 01:03:18;;;;;;;20.27;14.85;;;;;;;19.90;100.00;96293.75;5046048;28;20075;-60
2022/08/14 01:05:49;;;;;;;21.20;14.63;;;;;;;19.84;100.00;96289.94;5045950;28;20060;-61
2022/08/14 01:08:24;;;;;;;20.33;14.18;;;;;;;19.84;100.00;96284.31;5045853;28;20052;-60
2022/08/14 01:11:15;;;;;;;20.95;14.70;;;;;;;19.77;100.00;96278.91;5042940;28;20500;-62
2022/08/14 01:13:45;;;;;;;23.05;15.13;;;;;;;19.81;100.00;96273.94;5026076;28;20145;-59
2022/08/14 01:16:23;;;;;;;19.00;14.13;;;;;;;19.75;100.00;96275.75;5025854;28;20517;-61
2022/08/14 01:21:44;;;;;;;21.83;14.15;;;;;;;19.79;100.00;96276.44;5025065;28;20444;-59
2022/08/14 01:24:20;;;;;;;21.40;14.70;;;;;;;19.80;100.00;96261.13;5023825;28;20060;-61
2022/08/14 01:26:58;;;;;;;25.38;14.07;;;;;;;19.81;100.00;96257.09;5027539;28;20050;-60
2022/08/14 01:29:28;;;;;;;16.75;13.70;;;;;;;19.69;100.00;96233.38;5025256;28;20049;-59
2022/08/14 01:32:17;;;;;;;24.45;13.75;;;;;;;19.94;100.00;96260.69;5024753;28;20049;-59
2022/08/14 01:34:53;;;;;;;18.27;13.52;;;;;;;19.82;100.00;96265.09;5023804;28;20508;-61
2022/08/14 01:37:45;;;;;;;23.52;12.90;;;;;;;19.54;100.00;96227.41;5024927;28;20079;-61
2022/08/14 01:40:24;;;;;;;18.52;13.80;;;;;;;19.87;100.00;96272.16;5024663;28;20057;-62
2022/08/14 01:43:13;;;;;;;22.38;13.73;;;;;;;19.90;100.00;96280.47;5025179;28;20049;-59
2022/08/14 01:45:41;;;;;;;23.70;14.07;;;;;;;19.62;100.00;96221.59;5023675;28;20060;-60
2022/08/14 01:48:08;;;;;;;22.33;14.02;;;;;;;19.87;100.00;96266.56;5024806;28;20049;-60
2022/08/14 01:50:41;;;;;;;23.38;15.00;;;;;;;19.77;100.00;96268.47;5023320;28;20562;-62
2022/08/14 01:53:11;;;;;;;20.05;14.15;;;;;;;19.78;100.00;96269.22;5023378;28;20503;-61
2022/08/14 01:55:38;;;;;;;26.52;15.00;;;;;;;19.60;100.00;96224.06;5024536;28;20057;-61
2022/08/14 01:58:11;;;;;;;20.48;13.95;;;;;;;19.47;100.00;96193.91;5024480;28;20133;-58
2022/08/14 02:00:52;;;;;;;20.88;14.88;;;;;;;19.90;100.00;96265.66;5024648;28;20539;-61
2022/08/14 02:03:22;;;;;;;18.15;14.65;;;;;;;19.96;100.00;96264.63;5025053;28;20059;-61
2022/08/14 02:05:49;;;;;;;17.67;14.45;;;;;;;19.78;100.00;96241.13;5024552;28;20057;-61
2022/08/14 02:08:15;;;;;;;19.60;13.73;;;;;;;19.77;100.00;96262.03;5024542;28;20496;-60
2022/08/14 02:11:21;;;;;;;21.90;14.35;;;;;;;19.86;100.00;96260.13;5024363;28;20050;-62
2022/08/14 02:13:48;;;;;;;21.73;14.55;;;;;;;19.85;100.00;96257.78;5023879;28;20080;-59
2022/08/14 02:16:22;;;;;;;21.50;14.07;;;;;;;19.70;100.00;96251.00;5024672;28;20594;-58
2022/08/14 02:18:54;;;;;;;25.08;14.85;;;;;;;19.62;100.00;96255.31;5023478;28;20049;-60
2022/08/14 02:21:21;;;;;;;21.30;15.38;;;;;;;19.68;100.00;96250.69;5024658;28;20436;-58
2022/08/14 02:23:50;;;;;;;23.42;14.63;;;;;;;19.41;100.00;96200.56;5022832;28;20049;-58
2022/08/14 02:26:27;;;;;;;19.70;15.57;;;;;;;19.22;100.00;96182.63;5024661;28;20131;-59
2022/08/14 02:29:02;;;;;;;18.42;15.00;;;;;;;19.58;100.00;96239.31;5039187;28;20054;-59
2022/08/14 02:31:33;;;;;;;21.98;15.27;;;;;;;19.76;100.00;96243.63;5024002;28;20049;-59
2022/08/14 02:34:13;;;;;;;22.38;15.00;;;;;;;19.39;100.00;96203.78;5023863;28;20084;-60
2022/08/14 02:36:53;;;;;;;18.83;13.73;;;;;;;19.66;100.00;96267.22;5022590;28;20056;-59
2022/08/14 02:39:37;;;;;;;21.30;15.52;;;;;;;19.65;100.00;96243.94;5024343;28;20089;-61
2022/08/14 02:42:07;;;;;;;19.17;15.35;;;;;;;19.66;100.00;96239.09;5024008;28;20224;-58
2022/08/14 02:44:41;;;;;;;22.63;15.77;;;;;;;19.76;100.00;96249.22;5024056;28;20053;-59
2022/08/14 02:47:14;;;;;;;20.27;14.70;;;;;;;19.42;100.00;96228.19;5024131;28;20065;-61
2022/08/14 02:49:46;;;;;;;20.40;14.55;;;;;;;19.50;100.00;96238.00;5024331;28;20045;-58
2022/08/14 02:52:19;;;;;;;24.73;15.65;;;;;;;19.44;100.00;96245.38;5024153;28;20061;-61
2022/08/14 02:55:06;;;;;;;20.75;16.25;;;;;;;19.47;100.00;96249.31;5023752;28;20089;-61
2022/08/14 02:57:35;;;;;;;23.58;16.02;;;;;;;19.48;100.00;96245.28;5024355;28;20104;-58
2022/08/14 03:00:08;;;;;;;21.98;15.05;;;;;;;19.42;100.00;96252.69;5023985;28;20085;-59
2022/08/14 03:02:35;;;;;;;22.13;15.38;;;;;;;19.42;100.00;96253.47;5023934;28;20054;-59
2022/08/14 03:05:23;;;;;;;26.30;14.82;;;;;;;19.37;100.00;96250.44;5023861;28;20127;-59
2022/08/14 03:07:49;;;;;;;21.50;14.80;;;;;;;19.40;100.00;96244.72;5023988;28;20507;-58
2022/08/14 03:10:18;;;;;;;20.38;15.68;;;;;;;19.20;100.00;96227.25;5026725;28;20669;-60
2022/08/14 03:12:59;;;;;;;21.65;15.10;;;;;;;19.44;100.00;96245.38;5042866;28;20148;-61
2022/08/14 03:15:26;;;;;;;22.80;15.85;;;;;;;19.37;100.00;96245.59;5047839;28;20777;-61
2022/08/14 03:17:53;;;;;;;21.08;15.55;;;;;;;19.37;100.00;96231.56;5047555;28;20060;-61
2022/08/14 03:20:28;;;;;;;26.52;17.65;;;;;;;19.15;100.00;96188.47;5062012;28;20057;-58
2022/08/14 03:22:58;;;;;;;24.35;16.27;;;;;;;19.35;100.00;96242.44;5047683;28;20452;-60
2022/08/14 03:25:32;;;;;;;19.63;14.98;;;;;;;18.92;100.00;96168.34;5046954;28;20045;-59
2022/08/14 03:28:07;;;;;;;19.48;15.52;;;;;;;19.36;100.00;96238.41;5047039;28;20049;-60
2022/08/14 03:30:58;;;;;;;21.90;14.82;;;;;;;19.42;100.00;96239.44;5047292;28;20554;-60
2022/08/14 03:33:26;;;;;;;24.77;15.52;;;;;;;18.88;100.00;96160.00;5047753;28;20132;-58
2022/08/14 03:36:08;;;;;;;19.85;14.55;;;;;;;19.41;100.00;96245.50;5047584;28;20060;-59
2022/08/14 03:38:57;;;;;;;20.10;15.90;;;;;;;19.46;100.00;96242.91;5047538;28;20586;-61
2022/08/14 03:41:44;;;;;;;21.75;14.45;;;;;;;19.38;100.00;96241.56;5059553;28;20056;-60
2022/08/14 03:44:10;;;;;;;23.95;15.48;;;;;;;19.47;100.00;96238.84;5047455;28;20346;-61
2022/08/14 03:46:57;;;;;;;21.25;15.68;;;;;;;19.53;100.00;96241.91;5046783;28;20045;-60
2022/08/14 03:49:24;;;;;;;19.30;14.82;;;;;;;19.23;100.00;96195.44;5062964;28;20103;-59
2022/08/14 03:51:56;;;;;;;24.25;16.17;;;;;;;19.43;100.00;96232.56;5046354;28;20542;-60
2022/08/14 03:54:24;;;;;;;22.90;16.23;;;;;;;19.33;100.00;96233.66;5047346;28;20057;-61
2022/08/14 03:56:53;;;;;;;22.80;15.68;;;;;;;19.12;100.00;96192.19;5045600;28;20063;-60
2022/08/14 03:59:20;;;;;;;19.88;15.48;;;;;;;19.44;100.00;96234.13;5046957;28;20439;-60
2022/08/14 04:01:48;;;;;;;20.35;16.10;;;;;;;19.10;100.00;96183.41;5047128;28;20488;-58
2022/08/14 04:04:28;;;;;;;20.15;16.17;;;;;;;19.43;100.00;96226.97;5046735;28;20048;-60
2022/08/14 04:06:57;;;;;;;18.60;14.45;;;;;;;19.59;100.00;96217.63;5045071;28;20504;-58
2022/08/14 04:09:25;;;;;;;23.50;15.15;;;;;;;19.50;100.00;96221.13;5046888;28;20258;-61
2022/08/14 04:11:53;;;;;;;25.98;15.38;;;;;;;19.66;100.00;96223.03;5047879;28;20053;-62
2022/08/14 04:14:22;;;;;;;20.00;15.02;;;;;;;19.78;100.00;96224.25;5046899;28;20435;-57
2022/08/14 04:16:49;;;;;;;21.15;15.45;;;;;;;19.86;100.00;96236.84;5046621;28;20057;-61
2022/08/14 04:19:19;;;;;;;26.02;14.73;;;;;;;19.99;100.00;96223.56;5046847;28;20045;-62
2022/08/14 04:21:47;;;;;;;20.15;15.32;;;;;;;19.91;100.00;96222.22;5044397;28;20056;-58
2022/08/14 04:24:31;;;;;;;24.17;16.85;;;;;;;19.80;100.00;96221.78;5059787;28;20140;-59
2022/08/14 04:27:13;;;;;;;18.23;14.63;;;;;;;19.87;100.00;96194.22;5046136;28;20053;-61
2022/08/14 04:29:43;;;;;;;20.05;14.40;;;;;;;20.16;100.00;96231.47;5046596;28;20487;-60
2022/08/14 04:32:11;;;;;;;18.90;15.40;;;;;;;19.58;100.00;96199.22;5046118;28;20484;-60
2022/08/14 04:34:57;;;;;;;26.50;16.63;;;;;;;19.77;100.00;96234.72;5058981;28;20052;-60
2022/08/14 04:45:47;;;;;;;18.30;14.73;;;;;;;20.27;100.00;96194.53;5046082;28;20522;-58
2022/08/14 04:48:19;;;;;;;24.25;15.43;;;;;;;20.66;100.00;96222.09;5046368;28;20081;-58
2022/08/14 04:51:12;;;;;;;20.85;16.02;;;;;;;20.74;100.00;96223.41;5046619;28;20056;-60
2022/08/14 04:53:42;;;;;;;19.20;15.27;;;;;;;21.05;100.00;96235.56;5035794;28;20107;-58
2022/08/14 04:56:12;;;;;;;18.77;14.00;;;;;;;21.10;100.00;96214.47;5025896;28;20490;-58
2022/08/14 04:59:03;;;;;;;21.67;14.60;;;;;;;21.30;96.93;96232.63;5025398;28;20046;-59
2022/08/14 05:01:37;;;;;;;20.45;14.82;;;;;;;21.43;95.87;96224.88;5024318;28;20049;-62
2022/08/14 05:04:07;;;;;;;28.15;17.88;;;;;;;21.51;96.15;96219.75;5024240;28;20440;-58
2022/08/14 05:06:34;;;;;;;28.65;19.65;;;;;;;21.59;95.68;96224.63;5025225;28;20049;-57
2022/08/14 05:09:06;;;;;;;24.88;20.55;;;;;;;21.70;94.93;96227.84;5025603;28;20049;-58
2022/08/14 05:11:39;;;;;;;21.85;18.38;;;;;;;21.83;92.92;96220.06;5025130;28;20073;-57
2022/08/14 05:14:06;;;;;;;25.38;19.17;;;;;;;21.79;93.24;96224.28;5024881;28;20505;-61
2022/08/14 05:16:52;;;;;;;21.42;15.75;;;;;;;21.81;93.22;96216.94;5024827;28;20053;-60
2022/08/14 05:19:26;;;;;;;21.65;16.73;;;;;;;21.85;92.93;96223.22;5025161;28;20439;-58
2022/08/14 05:21:57;;;;;;;20.63;16.42;;;;;;;21.86;94.96;96219.13;5024951;28;20546;-60
2022/08/14 05:24:44;;;;;;;20.70;16.17;;;;;;;21.91;95.01;96214.91;5025135;28;20593;-59
2022/08/14 05:27:15;;;;;;;21.98;14.25;;;;;;;21.93;93.43;96218.06;5025026;28;20079;-58
2022/08/14 05:29:43;;;;;;;19.85;15.73;;;;;;;21.97;94.51;96219.50;5025252;28;20080;-62
2022/08/14 05:32:11;;;;;;;21.73;14.68;;;;;;;21.92;94.08;96217.31;5024726;28;20711;-62
2022/08/14 05:34:38;;;;;;;18.08;14.15;;;;;;;21.38;94.34;96200.09;5025054;28;20433;-59
2022/08/14 05:37:06;;;;;;;20.52;14.52;;;;;;;21.84;95.27;96203.94;5024561;28;20057;-59
2022/08/14 05:39:33;;;;;;;19.83;15.07;;;;;;;21.99;95.79;96217.00;5024963;28;20049;-58
2022/08/14 05:42:00;;;;;;;21.83;14.77;;;;;;;21.60;95.18;96161.38;5025032;28;20060;-61
2022/08/14 05:44:35;;;;;;;19.58;15.52;;;;;;;22.10;94.47;96206.06;5025342;28;20107;-62
2022/08/14 05:47:03;;;;;;;18.48;14.27;;;;;;;22.25;92.72;96211.91;5024940;28;20489;-59
2022/08/14 05:49:30;;;;;;;23.95;15.85;;;;;;;22.06;91.37;96188.50;5023669;28;20045;-59
2022/08/14 05:52:00;;;;;;;21.83;17.02;;;;;;;22.14;91.89;96206.72;5022973;28;20440;-63
2022/08/14 05:54:29;;;;;;;29.63;19.48;;;;;;;22.26;92.83;96214.25;5024308;28;20057;-62
2022/08/14 05:57:02;;;;;;;;;;;;;;;22.26;93.83;96214.25;5024606;28;20054;-59
2022/08/14 05:59:29;;;;;;;26.40;17.63;;;;;;;22.31;93.88;96210.81;5024591;28;19931;-60
2022/08/14 06:02:09;;;;;;;23.25;17.30;;;;;;;22.34;93.46;96204.25;5024500;28;20061;-61
2022/08/14 06:04:37;;;;;;;22.45;16.38;;;;;;;22.27;94.88;96210.16;5023154;28;20484;-59
2022/08/14 06:07:05;;;;;;;22.08;16.50;;;;;;;21.95;95.05;96153.53;5024496;28;20125;-61
2022/08/14 06:09:32;;;;;;;26.38;16.05;;;;;;;22.41;94.63;96209.56;5024583;28;20051;-62
2022/08/14 06:12:03;;;;;;;24.92;15.93;;;;;;;22.30;94.06;96192.31;5022552;28;20132;-61
2022/08/14 06:14:30;;;;;;;23.75;14.50;;;;;;;22.57;91.30;96204.94;5024045;28;20469;-63
2022/08/14 06:16:57;;;;;;;22.70;16.55;;;;;;;22.62;91.57;96207.91;5024300;28;20061;-59
2022/08/14 06:19:25;;;;;;;19.55;16.67;;;;;;;22.44;92.45;96174.78;5024006;28;20053;-62
2022/08/14 06:21:52;;;;;;;23.95;17.75;;;;;;;22.66;92.01;96190.81;5024350;28;20057;-59
2022/08/14 06:24:25;;;;;;;35.30;18.97;;;;;;;22.73;91.78;96196.16;5024581;28;20053;-61
2022/08/14 06:26:52;;;;;;;29.73;20.48;;;;;;;22.86;91.51;96194.72;5022985;28;20049;-61
2022/08/14 06:29:30;;;;;;;23.05;17.40;;;;;;;23.13;89.24;96202.38;5024405;28;20046;-61
2022/08/14 06:32:02;;;;;;;23.52;16.10;;;;;;;23.20;87.50;96207.72;5024553;28;20041;-61
2022/08/14 06:34:49;;;;;;;21.05;15.85;;;;;;;23.21;85.95;96192.31;5024398;28;20599;-58
2022/08/14 06:37:42;;;;;;;21.80;15.98;;;;;;;23.44;86.47;96203.00;5024335;28;20103;-61
2022/08/14 06:40:12;;;;;;;20.02;15.10;;;;;;;23.55;86.82;96203.28;5024090;28;20072;-61
2022/08/14 06:42:53;;;;;;;21.17;15.37;;;;;;;23.80;83.51;96200.06;5023791;28;20135;-58
2022/08/14 06:45:20;;;;;;;25.60;15.57;;;;;;;23.81;84.45;96201.59;5026582;28;20802;-61
2022/08/14 06:47:53;;;;;;;24.23;15.35;;;;;;;24.00;85.28;96196.69;5028396;28;20432;-57
2022/08/14 06:50:22;;;;;;;17.63;14.98;;;;;;;23.63;84.58;96150.78;5027595;28;20053;-60
2022/08/14 06:52:54;;;;;;;20.80;14.30;;;;;;;24.14;84.06;96202.41;5007610;28;20103;-61
2022/08/14 06:55:21;;;;;;;18.10;14.77;;;;;;;24.23;82.34;96210.88;5027640;28;20572;-57
2022/08/14 06:57:54;;;;;;;19.70;14.00;;;;;;;24.07;79.24;96182.19;5027502;28;20054;-58
2022/08/14 07:00:24;;;;;;;16.88;13.52;;;;;;;23.90;79.17;96164.78;5027868;28;20056;-58
2022/08/14 07:05:45;;;;;;;18.60;13.43;;;;;;;23.92;81.43;96192.63;5027724;28;20049;-59
2022/08/14 07:08:29;;;;;;;16.55;14.75;;;;;;;24.23;80.30;96193.09;5027868;28;20649;-58
2022/08/14 07:11:02;;;;;;;;;;;;;;;24.22;80.22;96192.31;5027061;28;20080;-57
2022/08/14 07:13:30;;;;;;;21.92;17.73;;;;;;;24.34;79.24;96188.50;5026707;28;20403;-58
2022/08/14 07:15:58;;;;;;;16.35;14.70;;;;;;;24.52;78.08;96193.22;5025963;28;20049;-58
2022/08/14 07:18:33;;;;;;;18.90;14.82;;;;;;;24.13;79.04;96192.38;5027295;28;20060;-58
2022/08/14 07:21:01;;;;;;;17.15;14.07;;;;;;;24.19;78.28;96190.44;5027185;28;20049;-57
2022/08/14 07:23:28;;;;;;;17.13;13.52;;;;;;;24.43;76.69;96196.91;5027219;28;20554;-58
2022/08/14 07:25:58;;;;;;;18.15;14.15;;;;;;;24.70;77.22;96188.25;5027283;28;20061;-60
2022/08/14 07:28:28;;;;;;;17.40;14.25;;;;;;;25.06;75.82;96181.47;5027467;28;20061;-59
2022/08/14 07:30:57;;;;;;;17.63;14.52;;;;;;;25.24;75.20;96199.09;5042131;28;20058;-60
2022/08/14 07:33:34;;;;;;;18.98;14.07;;;;;;;25.60;74.17;96202.84;5025810;28;20072;-58
2022/08/14 07:36:05;;;;;;;17.77;15.25;;;;;;;25.82;73.79;96189.03;5027010;28;20451;-58
2022/08/14 07:38:51;;;;;;;16.45;13.90;;;;;;;26.14;70.30;96190.88;5026473;28;20049;-59
2022/08/14 07:41:18;;;;;;;19.48;13.43;;;;;;;26.28;69.40;96207.09;5025857;28;20412;-60
2022/08/14 07:43:45;;;;;;;16.25;13.43;;;;;;;26.41;68.13;96199.00;5025345;28;20062;-58
2022/08/14 07:46:22;;;;;;;18.45;14.65;;;;;;;26.32;66.94;96174.34;5026587;28;20053;-60
2022/08/14 07:48:57;;;;;;;16.02;13.93;;;;;;;26.05;67.79;96148.41;5034841;28;20064;-63
2022/08/14 07:51:24;;;;;;;14.60;12.95;;;;;;;26.43;65.48;96190.78;5046263;28;20466;-60
2022/08/14 07:54:00;;;;;;;14.65;13.15;;;;;;;26.21;65.18;96191.25;5046794;28;20514;-59
2022/08/14 07:56:29;;;;;;;13.95;12.43;;;;;;;26.04;63.91;96192.25;5045116;28;20049;-60
2022/08/14 07:59:16;;;;;;;14.80;12.25;;;;;;;25.78;65.45;96191.31;5046475;28;20593;-57
2022/08/14 08:01:44;;;;;;;16.13;11.95;;;;;;;25.76;64.37;96191.00;5045326;28;20057;-60
2022/08/14 08:04:21;;;;;;;14.80;12.40;;;;;;;25.65;64.54;96193.66;5046782;28;20060;-60
2022/08/14 08:06:51;;;;;;;13.52;12.10;;;;;;;25.42;65.68;96140.69;5046329;28;20293;-59
2022/08/14 08:09:25;;;;;;;15.52;12.85;;;;;;;25.65;64.88;96153.94;5046251;28;20091;-58
2022/08/14 08:12:00;;;;;;;15.65;13.35;;;;;;;25.98;64.62;96186.47;5040888;28;20071;-61
2022/08/14 08:14:33;;;;;;;13.30;11.93;;;;;;;26.05;63.90;96191.00;5026652;28;20495;-58
2022/08/14 08:17:22;;;;;;;13.95;11.98;;;;;;;26.43;62.95;96196.47;5025005;28;20045;-60
2022/08/14 08:19:49;;;;;;;15.38;13.00;;;;;;;26.74;62.18;96188.13;5025392;28;20133;-60
2022/08/14 08:22:17;;;;;;;14.48;12.93;;;;;;;26.44;61.24;96124.97;5024950;28;20104;-58
2022/08/14 08:24:44;;;;;;;13.73;12.35;;;;;;;26.83;61.03;96099.84;5026672;28;20076;-60
2022/08/14 08:27:21;;;;;;;13.48;11.40;;;;;;;27.61;59.54;96179.03;5026126;28;20071;-59
2022/08/14 08:29:49;;;;;;;14.27;11.93;;;;;;;27.81;59.46;96181.78;5026004;28;20483;-59
2022/08/14 08:32:16;;;;;;;13.30;12.00;;;;;;;28.24;59.07;96164.75;5025960;28;20416;-59
2022/08/14 08:34:45;;;;;;;14.13;11.73;;;;;;;25.34;58.32;95736.88;5026243;28;20118;-61
2022/08/14 08:37:13;;;;;;;13.65;12.27;;;;;;;27.88;58.46;96132.16;5025841;28;20053;-59
2022/08/14 08:39:45;;;;;;;12.27;10.63;;;;;;;28.05;56.46;96159.47;5026154;28;20049;-59
2022/08/14 08:42:30;;;;;;;12.20;10.75;;;;;;;27.76;57.02;96148.34;5025773;28;20053;-60
2022/08/14 08:45:14;;;;;;;13.40;12.00;;;;;;;27.64;57.45;96123.94;5026020;28;20487;-62
2022/08/14 08:47:44;;;;;;;11.63;10.53;;;;;;;27.90;57.29;96158.84;5025628;28;20096;-58
2022/08/14 08:50:29;;;;;;;12.07;10.88;;;;;;;27.32;56.42;96099.59;5025812;28;20481;-61
2022/08/14 08:52:59;;;;;;;12.00;9.88;;;;;;;27.56;57.19;96154.13;5025327;28;20558;-58
2022/08/14 08:55:46;;;;;;;12.10;9.95;;;;;;;28.00;56.46;96151.69;5025291;28;20063;-61
2022/08/14 08:58:18;;;;;;;10.30;9.38;;;;;;;27.96;55.42;96134.03;5024123;28;20053;-61
2022/08/14 09:00:53;;;;;;;14.05;10.57;;;;;;;28.36;55.13;96137.91;5023986;28;20061;-60
2022/08/14 09:03:24;;;;;;;10.98;9.88;;;;;;;28.42;53.93;96138.72;5025298;28;20049;-62
2022/08/14 09:05:53;;;;;;;10.67;9.57;;;;;;;28.40;54.19;96139.22;5025586;28;20050;-59
2022/08/14 09:08:31;;;;;;;12.63;11.10;;;;;;;28.46;54.73;96142.09;5024884;28;20103;-62
2022/08/14 09:11:05;;;;;;;17.55;10.45;;;;;;;28.23;51.68;96100.53;5025458;28;20076;-62
2022/08/14 09:13:50;;;;;;;15.38;10.18;;;;;;;28.51;49.93;96129.97;5044991;28;20144;-60
2022/08/14 09:16:22;;;;;;;12.15;10.32;;;;;;;27.86;53.55;96064.31;5045066;28;20148;-59
2022/08/14 09:18:50;;;;;;;14.45;11.02;;;;;;;28.02;54.17;96123.47;5045175;28;20080;-62
2022/08/14 09:21:20;;;;;;;12.25;10.95;;;;;;;27.52;55.89;96110.88;5045015;28;20053;-59
2022/08/14 09:23:51;;;;;;;13.15;11.27;;;;;;;26.82;57.70;96052.84;5045243;28;20492;-59
2022/08/14 09:26:40;;;;;;;11.23;10.02;;;;;;;26.64;58.62;96121.34;5044302;28;20134;-59
2022/08/14 09:29:08;;;;;;;10.60;9.45;;;;;;;25.69;58.57;96086.44;5044985;28;20045;-62
2022/08/14 09:31:45;;;;;;;9.50;8.02;;;;;;;25.46;59.50;96101.53;5036822;28;20061;-62
2022/08/14 09:35:02;;;;;;;12.10;8.32;;;;;;;25.05;60.42;96121.16;5055984;28;20068;-59
2022/08/14 09:37:43;;;;;;;11.02;8.02;;;;;;;24.47;63.11;96129.53;5045055;28;20061;-62
2022/08/14 09:40:33;;;;;;;14.07;8.35;;;;;;;23.54;69.86;96116.88;5043504;28;20044;-60
2022/08/14 09:43:29;;;;;;;12.55;9.57;;;;;;;22.48;77.56;96109.69;5038885;28;20060;-60
2022/08/14 09:45:57;;;;;;;10.90;8.93;;;;;;;22.10;80.59;96134.75;5043146;28;20056;-60
2022/08/14 09:48:28;;;;;;;15.10;8.65;;;;;;;21.54;85.34;96129.41;5044991;28;20057;-60
2022/08/14 09:50:57;;;;;;;16.83;9.88;;;;;;;21.14;88.51;96139.88;5044612;28;20084;-60
2022/08/14 09:53:42;;;;;;;12.85;9.30;;;;;;;20.98;91.40;96140.09;5044605;28;20053;-59
2022/08/14 09:56:30;;;;;;;12.65;9.18;;;;;;;21.10;91.50;96150.50;5044377;28;20472;-61
2022/08/14 09:59:13;;;;;;;12.38;9.88;;;;;;;21.42;91.89;96155.66;5044809;28;20053;-60
2022/08/14 10:01:43;;;;;;;17.27;10.13;;;;;;;21.72;93.38;96163.28;5043983;28;20102;-62
2022/08/14 10:04:23;;;;;;;14.93;10.00;;;;;;;21.76;92.09;96158.34;5044223;28;20456;-61
2022/08/14 10:07:01;;;;;;;16.50;10.07;;;;;;;21.83;91.32;96151.63;5044235;28;20065;-61
2022/08/14 10:09:29;;;;;;;20.98;10.40;;;;;;;21.06;96.44;96087.88;5044188;28;20057;-61
2022/08/14 10:12:01;;;;;;;25.67;10.18;;;;;;;21.14;96.38;96159.59;5037848;28;20045;-62
2022/08/14 10:14:33;;;;;;;17.48;9.75;;;;;;;20.90;99.79;96164.09;5022916;28;20136;-60
2022/08/14 10:17:04;;;;;;;14.52;9.02;;;;;;;20.65;100.00;96156.56;5024044;28;20092;-59
2022/08/14 10:19:34;;;;;;;13.60;10.00;;;;;;;20.48;100.00;96160.03;5023767;28;20112;-60
2022/08/14 10:22:07;;;;;;;17.92;10.15;;;;;;;20.35;100.00;96150.84;5024069;28;20053;-59
2022/08/14 10:24:54;;;;;;;15.32;8.95;;;;;;;19.79;100.00;96085.31;5023309;28;20053;-60
2022/08/14 10:27:23;;;;;;;14.23;8.40;;;;;;;20.30;100.00;96171.09;5024241;28;20119;-60
2022/08/14 10:29:59;;;;;;;13.73;8.15;;;;;;;20.19;100.00;96153.81;5024083;28;20057;-61
2022/08/14 10:32:27;;;;;;;11.18;8.45;;;;;;;20.51;100.00;96187.25;5022340;28;20233;-59
2022/08/14 10:35:09;;;;;;;12.85;8.00;;;;;;;20.65;100.00;96187.53;5022623;28;20049;-59
2022/08/14 10:37:51;;;;;;;14.45;8.48;;;;;;;20.86;100.00;96197.22;5023755;28;20064;-60
2022/08/14 10:40:27;;;;;;;13.57;9.80;;;;;;;20.96;100.00;96190.44;5024417;28;20428;-61
2022/08/14 10:43:24;;;;;;;23.60;11.35;;;;;;;21.31;100.00;96193.97;5024429;28;20061;-60
2022/08/14 10:45:57;;;;;;;21.02;10.88;;;;;;;21.63;100.00;96191.47;5039405;28;20049;-61
2022/08/14 10:49:01;;;;;;;41.53;19.92;;;;;;;21.77;100.00;96196.56;5044020;28;20683;-59
2022/08/14 10:51:33;;;;;;;17.58;9.52;;;;;;;21.38;100.00;96138.13;5043897;28;20081;-60
2022/08/14 10:54:08;;;;;;;16.73;9.80;;;;;;;21.30;100.00;96181.91;5043650;28;20155;-59
2022/08/14 10:57:29;;;;;;;13.55;9.88;;;;;;;21.54;100.00;96185.78;5043422;28;20053;-60
2022/08/14 10:59:58;;;;;;;14.63;10.02;;;;;;;20.87;100.00;96125.59;5043966;28;20060;-60
2022/08/14 11:02:31;;;;;;;12.85;8.57;;;;;;;20.38;100.00;96105.72;5043592;28;20128;-60
2022/08/14 11:05:18;;;;;;;16.35;10.95;;;;;;;20.42;100.00;96142.16;5043455;28;20520;-58
2022/08/14 11:07:54;;;;;;;13.02;9.45;;;;;;;20.86;100.00;96188.78;5043563;28;20052;-60
2022/08/14 11:10:25;;;;;;;13.52;8.85;;;;;;;21.22;100.00;96174.19;5043497;28;20048;-58
2022/08/14 11:12:56;;;;;;;23.63;12.20;;;;;;;21.43;100.00;96162.88;5043757;28;20124;-59
2022/08/14 11:15:26;;;;;;;14.52;11.40;;;;;;;21.62;100.00;96164.53;5043074;28;20628;-61
2022/08/14 11:17:55;;;;;;;15.77;11.10;;;;;;;21.82;100.00;96159.28;5043605;28;20057;-60
2022/08/14 11:20:28;;;;;;;12.13;9.60;;;;;;;21.85;100.00;96161.19;5043239;28;20143;-60
2022/08/14 11:22:59;;;;;;;11.73;7.45;;;;;;;21.89;100.00;96147.69;5029070;28;20064;-59
2022/08/14 11:25:30;;;;;;;11.60;9.10;;;;;;;21.75;100.00;96150.31;5022327;28;20131;-60
2022/08/14 11:28:11;;;;;;;8.20;7.28;;;;;;;21.80;97.71;96142.06;5024003;28;20076;-60
2022/08/14 11:30:47;;;;;;;8.63;6.57;;;;;;;21.99;92.92;96138.03;5023476;28;20505;-59
2022/08/14 11:33:28;;;;;;;8.38;7.45;;;;;;;22.46;94.21;96110.16;5027495;28;20060;-61
2022/08/14 11:36:00;;;;;;;9.50;7.15;;;;;;;22.84;94.38;96106.84;5027622;28;20045;-61
2022/08/14 11:38:39;;;;;;;10.93;8.40;;;;;;;23.45;91.50;96097.94;5025661;28;20057;-60
2022/08/14 11:41:12;;;;;;;13.90;9.35;;;;;;;24.06;90.91;96093.66;5027221;28;20067;-60
2022/08/14 11:43:44;;;;;;;9.27;7.97;;;;;;;24.40;87.90;96061.97;5025754;28;20051;-61
2022/08/14 11:46:25;;;;;;;9.15;8.25;;;;;;;25.11;87.90;96095.78;5025594;28;20087;-61
2022/08/14 11:49:04;;;;;;;12.60;8.48;;;;;;;25.33;83.53;96104.66;5027021;28;20053;-61
2022/08/14 11:51:33;;;;;;;11.48;9.10;;;;;;;25.63;81.92;96106.22;5025439;28;20523;-61
2022/08/14 11:54:21;;;;;;;16.75;9.90;;;;;;;25.69;80.89;96058.84;5026870;28;20912;-61
2022/08/14 11:57:01;;;;;;;10.57;8.77;;;;;;;25.82;79.71;96095.41;5025545;28;20053;-60
2022/08/14 11:59:32;;;;;;;29.13;18.73;;;;;;;24.30;83.83;96029.34;5026717;28;20516;-60
2022/08/14 12:02:13;;;;;;;13.80;11.50;;;;;;;25.34;85.18;96094.91;5026272;28;20512;-60